Terminal Aerodrome Forecast
Issued by NWS Charleston, WV

Current Version | Previous Version | Graphics & Text | Print | Product List | Glossary On
Versions: 1 2 3 4 5 6 7 8 9 10 11 12 13 14 15 16 17 18 19
429
FTUS41 KRLX 061505 AAA
TAFEKN
TAF AMD
KEKN 061505Z 0615/0712 25005KT P6SM SCT200
     FM070000 00000KT P6SM BKN200=

USA.gov is the U.S. government's official web portal to all federal, state and local government web resources and services.